sensor_id;sensor_type;location;lat;lon;timestamp;P1;durP1;ratioP1;P2;durP2;ratioP2
78856;SDS011;68207;50.078;19.936;2023-07-31T00:02:21;4.50;;;3.80;;
78856;SDS011;68207;50.078;19.936;2023-07-31T00:04:46;7.00;;;4.40;;
78856;SDS011;68207;50.078;19.936;2023-07-31T00:07:11;4.10;;;3.00;;
78856;SDS011;68207;50.078;19.936;2023-07-31T00:09:37;4.70;;;3.30;;
78856;SDS011;68207;50.078;19.936;2023-07-31T00:12:02;4.80;;;3.40;;
78856;SDS011;68207;50.078;19.936;2023-07-31T00:14:27;5.70;;;3.70;;
78856;SDS011;68207;50.078;19.936;2023-07-31T00:16:52;4.60;;;3.50;;
78856;SDS011;68207;50.078;19.936;2023-07-31T00:19:17;6.30;;;3.60;;
78856;SDS011;68207;50.078;19.936;2023-07-31T00:21:43;5.50;;;3.40;;
78856;SDS011;68207;50.078;19.936;2023-07-31T00:24:09;3.90;;;3.30;;
78856;SDS011;68207;50.078;19.936;2023-07-31T00:26:34;5.70;;;3.40;;
78856;SDS011;68207;50.078;19.936;2023-07-31T00:28:59;5.30;;;3.50;;
78856;SDS011;68207;50.078;19.936;2023-07-31T00:31:24;4.20;;;3.40;;
78856;SDS011;68207;50.078;19.936;2023-07-31T00:33:49;4.80;;;3.50;;
78856;SDS011;68207;50.078;19.936;2023-07-31T00:36:15;5.70;;;3.50;;
78856;SDS011;68207;50.078;19.936;2023-07-31T00:38:40;5.40;;;3.30;;
78856;SDS011;68207;50.078;19.936;2023-07-31T00:41:05;5.10;;;3.40;;
78856;SDS011;68207;50.078;19.936;2023-07-31T00:43:30;4.70;;;3.20;;
78856;SDS011;68207;50.078;19.936;2023-07-31T00:45:55;4.80;;;3.00;;
78856;SDS011;68207;50.078;19.936;2023-07-31T00:48:21;4.60;;;3.30;;
78856;SDS011;68207;50.078;19.936;2023-07-31T00:50:46;4.90;;;3.60;;
78856;SDS011;68207;50.078;19.936;2023-07-31T00:53:11;5.70;;;3.60;;
78856;SDS011;68207;50.078;19.936;2023-07-31T00:55:37;4.80;;;3.50;;
78856;SDS011;68207;50.078;19.936;2023-07-31T00:58:03;6.10;;;3.60;;
78856;SDS011;68207;50.078;19.936;2023-07-31T01:00:28;5.10;;;3.50;;
78856;SDS011;68207;50.078;19.936;2023-07-31T01:02:53;6.10;;;3.70;;
78856;SDS011;68207;50.078;19.936;2023-07-31T01:05:19;5.60;;;3.70;;
78856;SDS011;68207;50.078;19.936;2023-07-31T01:07:56;6.20;;;3.60;;
78856;SDS011;68207;50.078;19.936;2023-07-31T01:10:25;5.70;;;3.20;;
78856;SDS011;68207;50.078;19.936;2023-07-31T01:12:51;5.70;;;3.50;;
78856;SDS011;68207;50.078;19.936;2023-07-31T01:15:18;6.50;;;3.80;;
78856;SDS011;68207;50.078;19.936;2023-07-31T01:17:43;5.80;;;4.00;;
78856;SDS011;68207;50.078;19.936;2023-07-31T01:20:13;7.10;;;4.40;;
78856;SDS011;68207;50.078;19.936;2023-07-31T01:22:43;5.00;;;3.70;;
78856;SDS011;68207;50.078;19.936;2023-07-31T01:25:23;8.30;;;4.30;;
78856;SDS011;68207;50.078;19.936;2023-07-31T01:27:59;9.20;;;4.40;;
78856;SDS011;68207;50.078;19.936;2023-07-31T01:30:27;6.10;;;3.90;;
78856;SDS011;68207;50.078;19.936;2023-07-31T01:32:54;5.90;;;3.90;;
78856;SDS011;68207;50.078;19.936;2023-07-31T01:35:20;6.70;;;3.90;;
78856;SDS011;68207;50.078;19.936;2023-07-31T01:37:46;5.80;;;3.90;;
78856;SDS011;68207;50.078;19.936;2023-07-31T01:40:11;5.40;;;4.00;;
78856;SDS011;68207;50.078;19.936;2023-07-31T01:42:36;8.20;;;4.20;;
78856;SDS011;68207;50.078;19.936;2023-07-31T01:45:02;6.80;;;4.20;;
78856;SDS011;68207;50.078;19.936;2023-07-31T01:47:27;6.50;;;4.50;;
78856;SDS011;68207;50.078;19.936;2023-07-31T01:49:52;6.00;;;3.90;;
78856;SDS011;68207;50.078;19.936;2023-07-31T01:52:17;6.10;;;3.70;;
78856;SDS011;68207;50.078;19.936;2023-07-31T01:54:42;4.30;;;3.40;;
78856;SDS011;68207;50.078;19.936;2023-07-31T01:57:07;5.70;;;3.60;;
78856;SDS011;68207;50.078;19.936;2023-07-31T01:59:32;4.60;;;3.00;;
78856;SDS011;68207;50.078;19.936;2023-07-31T02:01:58;6.30;;;3.60;;
78856;SDS011;68207;50.078;19.936;2023-07-31T02:04:23;6.70;;;4.10;;
78856;SDS011;68207;50.078;19.936;2023-07-31T02:06:48;6.20;;;3.30;;
78856;SDS011;68207;50.078;19.936;2023-07-31T02:09:13;7.50;;;3.40;;
78856;SDS011;68207;50.078;19.936;2023-07-31T02:11:38;6.20;;;3.60;;
78856;SDS011;68207;50.078;19.936;2023-07-31T02:14:03;6.30;;;3.10;;
78856;SDS011;68207;50.078;19.936;2023-07-31T02:16:29;5.40;;;3.30;;
78856;SDS011;68207;50.078;19.936;2023-07-31T02:18:54;5.80;;;3.60;;
78856;SDS011;68207;50.078;19.936;2023-07-31T02:21:19;8.00;;;4.20;;
78856;SDS011;68207;50.078;19.936;2023-07-31T02:23:44;5.80;;;3.50;;
78856;SDS011;68207;50.078;19.936;2023-07-31T02:26:09;5.90;;;3.60;;
78856;SDS011;68207;50.078;19.936;2023-07-31T02:28:34;4.40;;;3.60;;
78856;SDS011;68207;50.078;19.936;2023-07-31T02:30:59;4.90;;;3.30;;
78856;SDS011;68207;50.078;19.936;2023-07-31T02:33:25;4.70;;;2.90;;
78856;SDS011;68207;50.078;19.936;2023-07-31T02:35:50;4.40;;;3.40;;
78856;SDS011;68207;50.078;19.936;2023-07-31T02:38:15;4.70;;;3.10;;
78856;SDS011;68207;50.078;19.936;2023-07-31T02:40:40;5.20;;;3.50;;
78856;SDS011;68207;50.078;19.936;2023-07-31T02:43:08;4.50;;;3.40;;
78856;SDS011;68207;50.078;19.936;2023-07-31T02:45:34;5.30;;;3.30;;
78856;SDS011;68207;50.078;19.936;2023-07-31T02:47:59;5.80;;;3.00;;
78856;SDS011;68207;50.078;19.936;2023-07-31T02:50:24;10.70;;;3.60;;
78856;SDS011;68207;50.078;19.936;2023-07-31T02:52:49;5.80;;;3.20;;
78856;SDS011;68207;50.078;19.936;2023-07-31T02:55:15;13.00;;;3.50;;
78856;SDS011;68207;50.078;19.936;2023-07-31T02:57:40;5.10;;;3.40;;
78856;SDS011;68207;50.078;19.936;2023-07-31T03:00:05;5.10;;;3.50;;
78856;SDS011;68207;50.078;19.936;2023-07-31T03:07:21;6.30;;;3.10;;
78856;SDS011;68207;50.078;19.936;2023-07-31T03:09:46;5.60;;;3.40;;
78856;SDS011;68207;50.078;19.936;2023-07-31T03:12:15;5.50;;;3.50;;
78856;SDS011;68207;50.078;19.936;2023-07-31T03:14:40;5.60;;;3.40;;
78856;SDS011;68207;50.078;19.936;2023-07-31T03:17:05;5.90;;;4.10;;
78856;SDS011;68207;50.078;19.936;2023-07-31T03:19:31;5.70;;;3.50;;
78856;SDS011;68207;50.078;19.936;2023-07-31T03:21:56;6.20;;;3.50;;
78856;SDS011;68207;50.078;19.936;2023-07-31T03:24:22;5.40;;;3.10;;
78856;SDS011;68207;50.078;19.936;2023-07-31T03:26:47;4.30;;;3.20;;
78856;SDS011;68207;50.078;19.936;2023-07-31T03:29:12;4.40;;;3.40;;
78856;SDS011;68207;50.078;19.936;2023-07-31T03:31:37;6.10;;;3.20;;
78856;SDS011;68207;50.078;19.936;2023-07-31T03:34:02;5.60;;;3.40;;
78856;SDS011;68207;50.078;19.936;2023-07-31T03:36:27;4.80;;;3.00;;
78856;SDS011;68207;50.078;19.936;2023-07-31T03:38:53;4.60;;;3.10;;
78856;SDS011;68207;50.078;19.936;2023-07-31T03:41:18;4.40;;;3.00;;
78856;SDS011;68207;50.078;19.936;2023-07-31T03:43:43;8.60;;;3.60;;
78856;SDS011;68207;50.078;19.936;2023-07-31T03:46:08;4.90;;;2.90;;
78856;SDS011;68207;50.078;19.936;2023-07-31T03:48:33;5.20;;;2.90;;
78856;SDS011;68207;50.078;19.936;2023-07-31T03:50:58;5.70;;;3.60;;
78856;SDS011;68207;50.078;19.936;2023-07-31T03:53:24;8.70;;;3.10;;
78856;SDS011;68207;50.078;19.936;2023-07-31T03:55:49;3.60;;;2.80;;
78856;SDS011;68207;50.078;19.936;2023-07-31T03:58:14;4.30;;;2.90;;
78856;SDS011;68207;50.078;19.936;2023-07-31T04:00:39;4.20;;;2.60;;
78856;SDS011;68207;50.078;19.936;2023-07-31T04:03:05;10.80;;;3.70;;
78856;SDS011;68207;50.078;19.936;2023-07-31T04:05:31;7.90;;;2.90;;
78856;SDS011;68207;50.078;19.936;2023-07-31T04:07:56;4.00;;;2.90;;
78856;SDS011;68207;50.078;19.936;2023-07-31T04:10:21;3.70;;;2.90;;
78856;SDS011;68207;50.078;19.936;2023-07-31T04:12:47;6.60;;;2.90;;
78856;SDS011;68207;50.078;19.936;2023-07-31T04:15:12;5.50;;;3.10;;
78856;SDS011;68207;50.078;19.936;2023-07-31T04:17:37;5.30;;;3.10;;
78856;SDS011;68207;50.078;19.936;2023-07-31T04:20:02;6.60;;;3.10;;
78856;SDS011;68207;50.078;19.936;2023-07-31T04:22:27;5.40;;;3.30;;
78856;SDS011;68207;50.078;19.936;2023-07-31T04:24:53;7.10;;;3.30;;
78856;SDS011;68207;50.078;19.936;2023-07-31T04:27:18;10.40;;;3.60;;
78856;SDS011;68207;50.078;19.936;2023-07-31T04:29:43;13.80;;;3.40;;
78856;SDS011;68207;50.078;19.936;2023-07-31T04:32:10;6.10;;;3.50;;
78856;SDS011;68207;50.078;19.936;2023-07-31T04:34:36;5.50;;;3.50;;
78856;SDS011;68207;50.078;19.936;2023-07-31T04:37:01;8.60;;;4.00;;
78856;SDS011;68207;50.078;19.936;2023-07-31T04:39:26;8.10;;;3.00;;
78856;SDS011;68207;50.078;19.936;2023-07-31T04:41:51;11.20;;;3.80;;
78856;SDS011;68207;50.078;19.936;2023-07-31T04:44:16;7.60;;;3.50;;
78856;SDS011;68207;50.078;19.936;2023-07-31T04:46:41;6.60;;;3.60;;
78856;SDS011;68207;50.078;19.936;2023-07-31T04:49:07;6.20;;;3.60;;
78856;SDS011;68207;50.078;19.936;2023-07-31T04:51:32;7.40;;;3.80;;
78856;SDS011;68207;50.078;19.936;2023-07-31T04:53:57;11.60;;;3.50;;
78856;SDS011;68207;50.078;19.936;2023-07-31T04:56:22;9.30;;;3.40;;
78856;SDS011;68207;50.078;19.936;2023-07-31T04:58:47;9.00;;;4.00;;
78856;SDS011;68207;50.078;19.936;2023-07-31T05:01:12;6.70;;;3.50;;
78856;SDS011;68207;50.078;19.936;2023-07-31T05:03:38;5.90;;;3.70;;
78856;SDS011;68207;50.078;19.936;2023-07-31T05:06:03;6.10;;;3.80;;
78856;SDS011;68207;50.078;19.936;2023-07-31T05:08:28;10.40;;;4.20;;
78856;SDS011;68207;50.078;19.936;2023-07-31T05:10:53;5.30;;;3.50;;
78856;SDS011;68207;50.078;19.936;2023-07-31T05:13:18;6.70;;;3.70;;
78856;SDS011;68207;50.078;19.936;2023-07-31T05:15:44;4.30;;;3.00;;
78856;SDS011;68207;50.078;19.936;2023-07-31T05:18:09;8.70;;;3.50;;
78856;SDS011;68207;50.078;19.936;2023-07-31T05:20:34;22.20;;;4.60;;
78856;SDS011;68207;50.078;19.936;2023-07-31T05:22:59;9.10;;;3.70;;
78856;SDS011;68207;50.078;19.936;2023-07-31T05:25:24;7.40;;;3.90;;
78856;SDS011;68207;50.078;19.936;2023-07-31T05:27:49;7.00;;;3.80;;
78856;SDS011;68207;50.078;19.936;2023-07-31T05:30:15;6.30;;;3.60;;
78856;SDS011;68207;50.078;19.936;2023-07-31T05:32:40;6.90;;;4.00;;
78856;SDS011;68207;50.078;19.936;2023-07-31T05:35:05;11.70;;;3.90;;
78856;SDS011;68207;50.078;19.936;2023-07-31T05:37:31;11.80;;;4.30;;
78856;SDS011;68207;50.078;19.936;2023-07-31T05:39:56;6.40;;;4.00;;
78856;SDS011;68207;50.078;19.936;2023-07-31T05:42:21;13.70;;;4.00;;
78856;SDS011;68207;50.078;19.936;2023-07-31T05:44:46;11.10;;;4.10;;
78856;SDS011;68207;50.078;19.936;2023-07-31T05:47:12;6.70;;;3.70;;
78856;SDS011;68207;50.078;19.936;2023-07-31T05:49:37;7.90;;;4.00;;
78856;SDS011;68207;50.078;19.936;2023-07-31T05:52:02;10.30;;;3.90;;
78856;SDS011;68207;50.078;19.936;2023-07-31T05:54:27;13.20;;;4.20;;
78856;SDS011;68207;50.078;19.936;2023-07-31T05:56:53;13.90;;;4.60;;
78856;SDS011;68207;50.078;19.936;2023-07-31T05:59:18;15.10;;;5.00;;
78856;SDS011;68207;50.078;19.936;2023-07-31T06:01:43;13.20;;;4.80;;
78856;SDS011;68207;50.078;19.936;2023-07-31T06:04:08;13.60;;;5.20;;
78856;SDS011;68207;50.078;19.936;2023-07-31T06:06:34;9.10;;;4.60;;
78856;SDS011;68207;50.078;19.936;2023-07-31T06:08:59;8.00;;;4.60;;
78856;SDS011;68207;50.078;19.936;2023-07-31T06:11:24;4.50;;;3.80;;
78856;SDS011;68207;50.078;19.936;2023-07-31T06:13:49;12.80;;;5.70;;
78856;SDS011;68207;50.078;19.936;2023-07-31T06:16:15;11.20;;;4.80;;
78856;SDS011;68207;50.078;19.936;2023-07-31T06:18:40;6.00;;;4.30;;
78856;SDS011;68207;50.078;19.936;2023-07-31T06:21:05;23.00;;;5.10;;
78856;SDS011;68207;50.078;19.936;2023-07-31T06:23:31;7.90;;;5.10;;
78856;SDS011;68207;50.078;19.936;2023-07-31T06:25:56;10.20;;;4.90;;
78856;SDS011;68207;50.078;19.936;2023-07-31T06:28:23;8.20;;;4.60;;
78856;SDS011;68207;50.078;19.936;2023-07-31T06:30:51;5.10;;;4.30;;
78856;SDS011;68207;50.078;19.936;2023-07-31T06:33:17;5.70;;;4.50;;
78856;SDS011;68207;50.078;19.936;2023-07-31T06:35:42;18.10;;;5.20;;
78856;SDS011;68207;50.078;19.936;2023-07-31T06:38:07;17.10;;;5.10;;
78856;SDS011;68207;50.078;19.936;2023-07-31T06:40:32;7.90;;;4.70;;
78856;SDS011;68207;50.078;19.936;2023-07-31T06:42:58;18.50;;;4.80;;
78856;SDS011;68207;50.078;19.936;2023-07-31T06:45:23;7.10;;;4.50;;
78856;SDS011;68207;50.078;19.936;2023-07-31T06:47:48;7.60;;;4.50;;
78856;SDS011;68207;50.078;19.936;2023-07-31T06:50:13;6.40;;;4.70;;
78856;SDS011;68207;50.078;19.936;2023-07-31T06:52:38;13.10;;;4.50;;
78856;SDS011;68207;50.078;19.936;2023-07-31T06:55:15;9.50;;;3.80;;
78856;SDS011;68207;50.078;19.936;2023-07-31T06:57:41;11.60;;;4.90;;
78856;SDS011;68207;50.078;19.936;2023-07-31T07:00:06;13.90;;;4.40;;
78856;SDS011;68207;50.078;19.936;2023-07-31T07:02:32;15.30;;;4.30;;
78856;SDS011;68207;50.078;19.936;2023-07-31T07:04:57;18.70;;;4.70;;
78856;SDS011;68207;50.078;19.936;2023-07-31T07:07:22;15.30;;;4.20;;
78856;SDS011;68207;50.078;19.936;2023-07-31T07:09:47;9.20;;;3.90;;
78856;SDS011;68207;50.078;19.936;2023-07-31T07:12:13;9.90;;;3.80;;
78856;SDS011;68207;50.078;19.936;2023-07-31T07:14:38;7.90;;;3.90;;
78856;SDS011;68207;50.078;19.936;2023-07-31T07:17:03;9.50;;;3.60;;
78856;SDS011;68207;50.078;19.936;2023-07-31T07:19:28;8.00;;;4.00;;
78856;SDS011;68207;50.078;19.936;2023-07-31T07:21:53;8.80;;;4.10;;
78856;SDS011;68207;50.078;19.936;2023-07-31T07:24:19;23.30;;;4.50;;
78856;SDS011;68207;50.078;19.936;2023-07-31T07:26:44;7.70;;;3.30;;
78856;SDS011;68207;50.078;19.936;2023-07-31T07:29:09;6.60;;;3.20;;
78856;SDS011;68207;50.078;19.936;2023-07-31T07:31:35;7.40;;;3.40;;
78856;SDS011;68207;50.078;19.936;2023-07-31T07:34:01;6.30;;;3.30;;
78856;SDS011;68207;50.078;19.936;2023-07-31T07:36:27;4.90;;;3.30;;
78856;SDS011;68207;50.078;19.936;2023-07-31T07:38:53;4.50;;;3.10;;
78856;SDS011;68207;50.078;19.936;2023-07-31T07:41:18;12.30;;;3.50;;
78856;SDS011;68207;50.078;19.936;2023-07-31T07:43:43;4.90;;;3.10;;
78856;SDS011;68207;50.078;19.936;2023-07-31T07:46:08;10.80;;;3.40;;
78856;SDS011;68207;50.078;19.936;2023-07-31T07:48:33;9.10;;;3.00;;
78856;SDS011;68207;50.078;19.936;2023-07-31T07:50:58;14.70;;;3.30;;
78856;SDS011;68207;50.078;19.936;2023-07-31T07:53:23;4.50;;;3.30;;
78856;SDS011;68207;50.078;19.936;2023-07-31T07:55:49;8.10;;;3.30;;
78856;SDS011;68207;50.078;19.936;2023-07-31T07:58:14;6.00;;;2.80;;
78856;SDS011;68207;50.078;19.936;2023-07-31T08:00:39;6.10;;;3.00;;
78856;SDS011;68207;50.078;19.936;2023-07-31T08:03:04;5.90;;;3.50;;
78856;SDS011;68207;50.078;19.936;2023-07-31T08:05:29;6.20;;;3.10;;
78856;SDS011;68207;50.078;19.936;2023-07-31T08:07:59;7.60;;;3.20;;
78856;SDS011;68207;50.078;19.936;2023-07-31T08:10:24;6.40;;;3.20;;
78856;SDS011;68207;50.078;19.936;2023-07-31T08:12:49;9.10;;;3.60;;
78856;SDS011;68207;50.078;19.936;2023-07-31T08:15:14;6.30;;;3.10;;
78856;SDS011;68207;50.078;19.936;2023-07-31T08:17:39;7.10;;;3.00;;
78856;SDS011;68207;50.078;19.936;2023-07-31T08:20:05;8.00;;;3.00;;
78856;SDS011;68207;50.078;19.936;2023-07-31T08:22:31;12.70;;;3.30;;
78856;SDS011;68207;50.078;19.936;2023-07-31T08:24:56;7.20;;;3.20;;
78856;SDS011;68207;50.078;19.936;2023-07-31T08:27:21;8.70;;;3.70;;
78856;SDS011;68207;50.078;19.936;2023-07-31T08:29:46;4.70;;;2.90;;
78856;SDS011;68207;50.078;19.936;2023-07-31T08:32:11;8.70;;;3.30;;
78856;SDS011;68207;50.078;19.936;2023-07-31T08:34:37;7.10;;;3.10;;
78856;SDS011;68207;50.078;19.936;2023-07-31T08:37:02;4.70;;;2.60;;
78856;SDS011;68207;50.078;19.936;2023-07-31T08:39:27;10.50;;;3.00;;
78856;SDS011;68207;50.078;19.936;2023-07-31T08:41:57;21.40;;;3.90;;
78856;SDS011;68207;50.078;19.936;2023-07-31T08:44:22;6.70;;;2.80;;
78856;SDS011;68207;50.078;19.936;2023-07-31T08:46:49;10.00;;;3.00;;
78856;SDS011;68207;50.078;19.936;2023-07-31T08:49:14;11.10;;;2.80;;
78856;SDS011;68207;50.078;19.936;2023-07-31T08:51:39;18.70;;;4.90;;
78856;SDS011;68207;50.078;19.936;2023-07-31T08:54:06;9.00;;;3.60;;
78856;SDS011;68207;50.078;19.936;2023-07-31T08:56:32;12.40;;;3.40;;
78856;SDS011;68207;50.078;19.936;2023-07-31T08:58:57;4.80;;;3.10;;
78856;SDS011;68207;50.078;19.936;2023-07-31T09:03:48;7.30;;;3.20;;
78856;SDS011;68207;50.078;19.936;2023-07-31T09:06:14;6.30;;;2.90;;
78856;SDS011;68207;50.078;19.936;2023-07-31T09:08:41;9.80;;;3.40;;
78856;SDS011;68207;50.078;19.936;2023-07-31T09:13:32;8.20;;;3.00;;
78856;SDS011;68207;50.078;19.936;2023-07-31T09:15:57;6.70;;;3.10;;
78856;SDS011;68207;50.078;19.936;2023-07-31T09:18:23;5.20;;;2.80;;
78856;SDS011;68207;50.078;19.936;2023-07-31T09:21:06;7.60;;;2.80;;
78856;SDS011;68207;50.078;19.936;2023-07-31T09:26:07;12.50;;;3.20;;
78856;SDS011;68207;50.078;19.936;2023-07-31T09:28:32;6.70;;;2.80;;
78856;SDS011;68207;50.078;19.936;2023-07-31T09:30:57;5.20;;;2.60;;
78856;SDS011;68207;50.078;19.936;2023-07-31T09:33:22;5.30;;;2.40;;
78856;SDS011;68207;50.078;19.936;2023-07-31T09:35:47;8.20;;;2.60;;
78856;SDS011;68207;50.078;19.936;2023-07-31T09:38:16;4.10;;;2.30;;
78856;SDS011;68207;50.078;19.936;2023-07-31T09:40:42;5.10;;;2.50;;
78856;SDS011;68207;50.078;19.936;2023-07-31T09:43:08;8.90;;;2.90;;
78856;SDS011;68207;50.078;19.936;2023-07-31T09:45:35;5.60;;;2.30;;
78856;SDS011;68207;50.078;19.936;2023-07-31T09:48:01;5.20;;;2.80;;
78856;SDS011;68207;50.078;19.936;2023-07-31T09:52:52;15.00;;;2.80;;
78856;SDS011;68207;50.078;19.936;2023-07-31T09:55:18;8.10;;;2.80;;
78856;SDS011;68207;50.078;19.936;2023-07-31T09:57:44;5.80;;;2.80;;
78856;SDS011;68207;50.078;19.936;2023-07-31T10:00:10;10.80;;;3.00;;
78856;SDS011;68207;50.078;19.936;2023-07-31T10:05:02;4.60;;;2.40;;
78856;SDS011;68207;50.078;19.936;2023-07-31T10:07:28;5.80;;;2.50;;
78856;SDS011;68207;50.078;19.936;2023-07-31T10:09:54;8.70;;;3.30;;
78856;SDS011;68207;50.078;19.936;2023-07-31T10:12:21;4.80;;;2.30;;
78856;SDS011;68207;50.078;19.936;2023-07-31T10:14:47;8.30;;;2.50;;
78856;SDS011;68207;50.078;19.936;2023-07-31T10:17:13;5.60;;;2.40;;
78856;SDS011;68207;50.078;19.936;2023-07-31T10:19:38;8.70;;;2.50;;
78856;SDS011;68207;50.078;19.936;2023-07-31T10:22:04;7.50;;;2.60;;
78856;SDS011;68207;50.078;19.936;2023-07-31T10:24:29;6.30;;;2.30;;
78856;SDS011;68207;50.078;19.936;2023-07-31T10:26:55;4.70;;;2.60;;
78856;SDS011;68207;50.078;19.936;2023-07-31T10:29:21;4.90;;;2.20;;
78856;SDS011;68207;50.078;19.936;2023-07-31T10:31:46;6.50;;;2.10;;
78856;SDS011;68207;50.078;19.936;2023-07-31T10:34:13;3.40;;;2.20;;
78856;SDS011;68207;50.078;19.936;2023-07-31T10:36:38;4.80;;;2.20;;
78856;SDS011;68207;50.078;19.936;2023-07-31T10:39:03;5.70;;;2.30;;
78856;SDS011;68207;50.078;19.936;2023-07-31T10:41:29;7.80;;;2.30;;
78856;SDS011;68207;50.078;19.936;2023-07-31T10:43:59;5.30;;;2.50;;
78856;SDS011;68207;50.078;19.936;2023-07-31T10:46:24;4.10;;;2.10;;
78856;SDS011;68207;50.078;19.936;2023-07-31T10:48:57;6.10;;;2.40;;
78856;SDS011;68207;50.078;19.936;2023-07-31T10:51:22;8.60;;;2.20;;
78856;SDS011;68207;50.078;19.936;2023-07-31T10:53:47;11.00;;;2.90;;
78856;SDS011;68207;50.078;19.936;2023-07-31T10:56:12;4.70;;;2.20;;
78856;SDS011;68207;50.078;19.936;2023-07-31T10:58:40;4.70;;;2.00;;
78856;SDS011;68207;50.078;19.936;2023-07-31T11:01:08;10.30;;;2.40;;
78856;SDS011;68207;50.078;19.936;2023-07-31T11:06:08;12.20;;;2.70;;
78856;SDS011;68207;50.078;19.936;2023-07-31T11:08:33;6.20;;;2.50;;
78856;SDS011;68207;50.078;19.936;2023-07-31T11:13:29;4.70;;;1.90;;
78856;SDS011;68207;50.078;19.936;2023-07-31T11:15:55;5.70;;;2.60;;
78856;SDS011;68207;50.078;19.936;2023-07-31T11:18:20;6.60;;;2.00;;
78856;SDS011;68207;50.078;19.936;2023-07-31T11:20:45;7.80;;;2.30;;
78856;SDS011;68207;50.078;19.936;2023-07-31T11:23:10;4.30;;;2.00;;
78856;SDS011;68207;50.078;19.936;2023-07-31T11:25:36;5.40;;;2.40;;
78856;SDS011;68207;50.078;19.936;2023-07-31T11:28:05;3.50;;;2.00;;
78856;SDS011;68207;50.078;19.936;2023-07-31T11:30:31;9.10;;;2.70;;
78856;SDS011;68207;50.078;19.936;2023-07-31T11:32:56;5.60;;;2.00;;
78856;SDS011;68207;50.078;19.936;2023-07-31T11:35:21;9.20;;;2.30;;
78856;SDS011;68207;50.078;19.936;2023-07-31T11:37:47;4.90;;;2.00;;
78856;SDS011;68207;50.078;19.936;2023-07-31T11:40:13;4.00;;;1.90;;
78856;SDS011;68207;50.078;19.936;2023-07-31T11:42:38;4.10;;;1.90;;
78856;SDS011;68207;50.078;19.936;2023-07-31T11:45:04;4.60;;;1.80;;
78856;SDS011;68207;50.078;19.936;2023-07-31T11:49:55;3.80;;;2.10;;
78856;SDS011;68207;50.078;19.936;2023-07-31T11:52:20;14.70;;;2.50;;
78856;SDS011;68207;50.078;19.936;2023-07-31T11:54:48;5.30;;;2.30;;
78856;SDS011;68207;50.078;19.936;2023-07-31T11:57:13;2.70;;;1.80;;
78856;SDS011;68207;50.078;19.936;2023-07-31T11:59:38;9.20;;;2.20;;
78856;SDS011;68207;50.078;19.936;2023-07-31T12:02:04;4.90;;;2.30;;
78856;SDS011;68207;50.078;19.936;2023-07-31T12:04:29;5.90;;;2.10;;
78856;SDS011;68207;50.078;19.936;2023-07-31T12:06:54;4.00;;;2.10;;
78856;SDS011;68207;50.078;19.936;2023-07-31T12:09:20;3.30;;;1.80;;
78856;SDS011;68207;50.078;19.936;2023-07-31T12:11:45;4.10;;;2.10;;
78856;SDS011;68207;50.078;19.936;2023-07-31T12:14:20;4.60;;;2.10;;
78856;SDS011;68207;50.078;19.936;2023-07-31T12:16:47;4.20;;;1.90;;
78856;SDS011;68207;50.078;19.936;2023-07-31T12:19:12;3.40;;;2.10;;
78856;SDS011;68207;50.078;19.936;2023-07-31T12:21:37;4.70;;;1.90;;
78856;SDS011;68207;50.078;19.936;2023-07-31T12:24:03;3.70;;;2.00;;
78856;SDS011;68207;50.078;19.936;2023-07-31T12:28:53;3.40;;;2.00;;
78856;SDS011;68207;50.078;19.936;2023-07-31T12:33:45;6.00;;;2.00;;
78856;SDS011;68207;50.078;19.936;2023-07-31T12:36:11;7.60;;;2.30;;
78856;SDS011;68207;50.078;19.936;2023-07-31T12:38:37;9.60;;;2.10;;
78856;SDS011;68207;50.078;19.936;2023-07-31T12:41:02;5.20;;;1.80;;
78856;SDS011;68207;50.078;19.936;2023-07-31T12:43:27;4.50;;;1.90;;
78856;SDS011;68207;50.078;19.936;2023-07-31T12:45:54;7.50;;;2.20;;
78856;SDS011;68207;50.078;19.936;2023-07-31T12:48:19;5.40;;;2.40;;
78856;SDS011;68207;50.078;19.936;2023-07-31T12:50:44;3.80;;;1.90;;
78856;SDS011;68207;50.078;19.936;2023-07-31T12:53:09;5.60;;;2.00;;
78856;SDS011;68207;50.078;19.936;2023-07-31T12:55:34;8.10;;;2.20;;
78856;SDS011;68207;50.078;19.936;2023-07-31T12:58:01;7.00;;;2.30;;
78856;SDS011;68207;50.078;19.936;2023-07-31T13:00:27;6.90;;;2.30;;
78856;SDS011;68207;50.078;19.936;2023-07-31T13:02:52;4.10;;;2.10;;
78856;SDS011;68207;50.078;19.936;2023-07-31T13:05:17;4.00;;;2.10;;
78856;SDS011;68207;50.078;19.936;2023-07-31T13:07:44;4.30;;;2.00;;
78856;SDS011;68207;50.078;19.936;2023-07-31T13:10:09;4.30;;;2.10;;
78856;SDS011;68207;50.078;19.936;2023-07-31T13:12:35;4.50;;;2.20;;
78856;SDS011;68207;50.078;19.936;2023-07-31T13:15:00;5.50;;;2.60;;
78856;SDS011;68207;50.078;19.936;2023-07-31T13:17:25;3.60;;;2.30;;
78856;SDS011;68207;50.078;19.936;2023-07-31T13:22:16;5.20;;;2.40;;
78856;SDS011;68207;50.078;19.936;2023-07-31T13:24:41;5.80;;;2.50;;
78856;SDS011;68207;50.078;19.936;2023-07-31T13:27:06;12.40;;;3.00;;
78856;SDS011;68207;50.078;19.936;2023-07-31T13:29:31;3.90;;;2.20;;
78856;SDS011;68207;50.078;19.936;2023-07-31T13:31:57;4.90;;;2.10;;
78856;SDS011;68207;50.078;19.936;2023-07-31T13:34:22;4.00;;;2.20;;
78856;SDS011;68207;50.078;19.936;2023-07-31T13:36:47;7.40;;;2.30;;
78856;SDS011;68207;50.078;19.936;2023-07-31T13:39:13;6.70;;;2.30;;
78856;SDS011;68207;50.078;19.936;2023-07-31T13:41:38;4.30;;;2.30;;
78856;SDS011;68207;50.078;19.936;2023-07-31T13:44:03;5.10;;;2.30;;
78856;SDS011;68207;50.078;19.936;2023-07-31T13:46:28;4.20;;;2.00;;
78856;SDS011;68207;50.078;19.936;2023-07-31T13:48:53;6.10;;;2.50;;
78856;SDS011;68207;50.078;19.936;2023-07-31T13:51:20;4.30;;;2.30;;
78856;SDS011;68207;50.078;19.936;2023-07-31T13:53:45;7.10;;;2.90;;
78856;SDS011;68207;50.078;19.936;2023-07-31T13:56:10;3.70;;;2.30;;
78856;SDS011;68207;50.078;19.936;2023-07-31T13:58:36;3.90;;;2.20;;
78856;SDS011;68207;50.078;19.936;2023-07-31T14:01:01;6.80;;;2.50;;
78856;SDS011;68207;50.078;19.936;2023-07-31T14:03:26;5.50;;;2.30;;
78856;SDS011;68207;50.078;19.936;2023-07-31T14:05:52;5.00;;;2.50;;
78856;SDS011;68207;50.078;19.936;2023-07-31T14:08:17;5.50;;;2.50;;
78856;SDS011;68207;50.078;19.936;2023-07-31T14:10:42;7.20;;;2.40;;
78856;SDS011;68207;50.078;19.936;2023-07-31T14:13:07;3.30;;;2.20;;
78856;SDS011;68207;50.078;19.936;2023-07-31T14:15:32;5.60;;;2.20;;
78856;SDS011;68207;50.078;19.936;2023-07-31T14:18:00;5.90;;;2.50;;
78856;SDS011;68207;50.078;19.936;2023-07-31T14:20:25;5.80;;;2.30;;
78856;SDS011;68207;50.078;19.936;2023-07-31T14:22:50;3.30;;;2.40;;
78856;SDS011;68207;50.078;19.936;2023-07-31T14:25:16;4.00;;;2.40;;
78856;SDS011;68207;50.078;19.936;2023-07-31T14:27:41;5.40;;;2.20;;
78856;SDS011;68207;50.078;19.936;2023-07-31T14:30:06;4.10;;;2.00;;
78856;SDS011;68207;50.078;19.936;2023-07-31T14:34:57;4.00;;;2.20;;
78856;SDS011;68207;50.078;19.936;2023-07-31T14:37:22;9.10;;;2.10;;
78856;SDS011;68207;50.078;19.936;2023-07-31T14:39:47;3.60;;;2.20;;
78856;SDS011;68207;50.078;19.936;2023-07-31T14:42:12;4.80;;;2.20;;
78856;SDS011;68207;50.078;19.936;2023-07-31T14:44:38;4.20;;;2.10;;
78856;SDS011;68207;50.078;19.936;2023-07-31T14:47:03;3.70;;;2.10;;
78856;SDS011;68207;50.078;19.936;2023-07-31T14:49:28;3.50;;;2.20;;
78856;SDS011;68207;50.078;19.936;2023-07-31T14:51:53;4.10;;;2.10;;
78856;SDS011;68207;50.078;19.936;2023-07-31T14:54:19;4.00;;;2.10;;
78856;SDS011;68207;50.078;19.936;2023-07-31T14:56:44;3.80;;;2.10;;
78856;SDS011;68207;50.078;19.936;2023-07-31T14:59:09;3.70;;;2.50;;